Time;durP1;ratioP1;P1;durP2;ratioP2;P2;SDS_P1;SDS_P2;PMS_P1;PMS_P2;Temp;Humidity;BMP_temperature;BMP_pressure;BME280_temperature;BME280_humidity;BME280_pressure;Samples;Min_cycle;Max_cycle;Signal;HPM_P1;HPM_P2
2022/07/31 00:01:48;;;;;;;4.03;1.75;;;18.20;99.90;;;;;;5000223;28;20038;-81
2022/07/31 00:04:17;;;;;;;3.38;1.30;;;18.20;99.90;;;;;;5004529;28;20044;-80
2022/07/31 00:06:43;;;;;;;5.15;1.60;;;18.20;99.90;;;;;;5003139;28;20041;-79
2022/07/31 00:09:09;;;;;;;4.25;1.55;;;18.10;99.90;;;;;;5000781;28;20137;-77
2022/07/31 00:11:34;;;;;;;5.28;1.40;;;18.10;99.90;;;;;;4997011;28;20663;-78
2022/07/31 00:14:00;;;;;;;2.78;1.58;;;18.10;99.90;;;;;;5001772;28;20025;-78
2022/07/31 00:16:26;;;;;;;6.40;1.38;;;18.00;99.90;;;;;;4997664;28;20133;-80
2022/07/31 00:18:52;;;;;;;3.20;1.40;;;18.00;99.90;;;;;;4997207;28;20132;-78
2022/07/31 00:21:17;;;;;;;7.07;1.40;;;18.00;99.90;;;;;;5001736;28;20471;-79
2022/07/31 00:23:43;;;;;;;5.93;1.55;;;17.90;99.90;;;;;;4998045;28;20061;-78
2022/07/31 00:26:08;;;;;;;2.72;1.40;;;17.90;99.90;;;;;;5014589;28;20412;-80
2022/07/31 00:28:35;;;;;;;3.22;1.40;;;17.90;99.90;;;;;;4999792;28;20038;-81
2022/07/31 00:31:02;;;;;;;3.65;1.40;;;17.90;99.90;;;;;;5002871;28;20056;-78
2022/07/31 00:33:27;;;;;;;3.47;1.30;;;17.80;99.90;;;;;;5002698;28;20069;-77
2022/07/31 00:35:53;;;;;;;2.60;1.17;;;17.80;99.90;;;;;;5003629;28;20200;-78
2022/07/31 00:38:18;;;;;;;2.45;1.40;;;17.70;99.90;;;;;;4998513;28;20044;-78
2022/07/31 00:40:46;;;;;;;4.05;1.70;;;17.70;99.90;;;;;;4999190;28;20034;-80
2022/07/31 00:43:13;;;;;;;4.68;1.40;;;17.80;99.90;;;;;;5000363;28;20049;-78
2022/07/31 00:45:39;;;;;;;1.92;1.38;;;17.70;99.90;;;;;;5001977;28;20090;-78
2022/07/31 00:48:05;;;;;;;2.72;1.60;;;17.70;99.90;;;;;;5000809;28;20737;-78
2022/07/31 00:50:31;;;;;;;2.15;1.42;;;17.70;99.90;;;;;;5000487;28;20042;-79
2022/07/31 00:52:56;;;;;;;2.00;1.50;;;17.70;99.90;;;;;;5007700;28;20041;-77
2022/07/31 00:55:22;;;;;;;4.32;2.03;;;17.70;99.90;;;;;;5009606;28;20547;-78
2022/07/31 00:57:48;;;;;;;5.65;1.52;;;17.60;99.90;;;;;;5005249;28;20168;-77
2022/07/31 01:00:14;;;;;;;5.22;1.98;;;17.50;99.90;;;;;;5005958;28;20045;-78
2022/07/31 01:02:39;;;;;;;5.03;2.05;;;17.60;99.90;;;;;;5011222;28;20046;-78
2022/07/31 01:05:05;;;;;;;5.18;1.70;;;17.60;99.90;;;;;;5007329;28;20127;-79
2022/07/31 01:07:31;;;;;;;11.73;2.00;;;17.70;99.90;;;;;;5007170;28;20061;-80
2022/07/31 01:09:57;;;;;;;3.90;2.10;;;17.70;99.90;;;;;;5005928;28;20041;-81
2022/07/31 01:12:34;;;;;;;5.78;1.50;;;17.70;99.90;;;;;;5011235;28;20046;-80
2022/07/31 01:15:08;;;;;;;5.78;2.13;;;17.80;99.90;;;;;;5007572;28;20120;-78
2022/07/31 01:17:35;;;;;;;3.70;1.60;;;17.80;99.90;;;;;;5007009;28;20041;-79
2022/07/31 01:20:01;;;;;;;4.57;2.10;;;17.70;99.90;;;;;;5007950;28;21151;-77
2022/07/31 01:22:52;;;;;;;4.75;1.50;;;17.70;99.90;;;;;;5004914;28;20077;-78
2022/07/31 01:25:51;;;;;;;4.43;1.85;;;17.80;99.90;;;;;;5007496;28;20060;-78
2022/07/31 01:28:39;;;;;;;3.03;1.63;;;17.80;99.90;;;;;;5002941;28;21070;-78
2022/07/31 01:31:18;;;;;;;1.88;1.58;;;17.80;99.90;;;;;;5013645;28;20045;-79
2022/07/31 01:33:52;;;;;;;2.75;1.50;;;17.80;99.90;;;;;;5007779;28;20041;-80
2022/07/31 01:36:25;;;;;;;3.28;1.63;;;17.80;99.90;;;;;;5003860;28;21752;-77
2022/07/31 01:38:52;;;;;;;4.93;1.40;;;17.80;99.90;;;;;;5007166;28;21023;-80
2022/07/31 01:41:23;;;;;;;3.85;1.45;;;17.80;99.90;;;;;;5007220;28;20056;-78
2022/07/31 01:43:53;;;;;;;7.13;1.77;;;17.80;99.90;;;;;;5009133;28;20103;-77
2022/07/31 01:46:20;;;;;;;2.80;1.65;;;17.80;99.90;;;;;;5004407;28;20125;-78
2022/07/31 01:48:48;;;;;;;5.13;1.70;;;17.80;99.90;;;;;;5010177;28;20046;-78
2022/07/31 01:51:15;;;;;;;3.30;1.70;;;17.80;99.90;;;;;;5004540;28;20049;-78
2022/07/31 01:53:45;;;;;;;4.97;2.10;;;17.80;99.90;;;;;;5002345;28;20164;-78
2022/07/31 01:56:11;;;;;;;5.63;1.52;;;17.80;99.90;;;;;;5004124;28;20054;-77
2022/07/31 01:58:40;;;;;;;5.32;1.85;;;17.80;99.90;;;;;;5007394;28;20056;-78
2022/07/31 02:01:08;;;;;;;2.58;1.30;;;17.80;99.90;;;;;;5007063;28;20045;-78
2022/07/31 02:03:36;;;;;;;3.95;1.65;;;17.80;99.90;;;;;;4998152;28;20042;-79
2022/07/31 02:06:02;;;;;;;7.82;1.92;;;17.80;99.90;;;;;;5004317;28;20053;-79
2022/07/31 02:08:30;;;;;;;2.30;1.50;;;17.80;99.90;;;;;;5003298;28;20172;-78
2022/07/31 02:10:59;;;;;;;2.33;1.50;;;17.80;99.90;;;;;;5006477;28;20038;-77
2022/07/31 02:13:26;;;;;;;3.90;1.85;;;17.80;99.90;;;;;;5004596;28;20053;-78
2022/07/31 02:15:53;;;;;;;4.30;1.77;;;17.70;99.90;;;;;;5000343;28;20125;-79
2022/07/31 02:18:20;;;;;;;7.18;2.25;;;17.80;99.90;;;;;;5000805;28;20496;-78
2022/07/31 02:20:49;;;;;;;3.85;2.17;;;17.70;99.90;;;;;;5004731;28;20456;-79
2022/07/31 02:23:15;;;;;;;2.63;2.10;;;17.80;99.90;;;;;;5001009;28;20042;-80
2022/07/31 02:25:42;;;;;;;5.15;2.10;;;17.80;99.90;;;;;;5002633;28;20050;-78
2022/07/31 02:28:12;;;;;;;5.63;2.28;;;17.80;99.90;;;;;;4997280;28;20548;-78
2022/07/31 02:30:41;;;;;;;4.00;2.35;;;17.80;99.90;;;;;;5004049;28;20188;-78
2022/07/31 02:33:10;;;;;;;7.53;2.25;;;17.80;99.90;;;;;;5004056;28;20095;-80
2022/07/31 02:35:38;;;;;;;5.22;3.00;;;17.80;99.90;;;;;;4997926;28;20084;-78
2022/07/31 02:38:04;;;;;;;4.95;2.60;;;17.80;99.90;;;;;;5001718;28;20161;-77
2022/07/31 02:40:30;;;;;;;4.45;2.80;;;17.90;99.90;;;;;;5003239;28;20432;-79
2022/07/31 02:42:56;;;;;;;3.05;2.10;;;17.80;99.90;;;;;;5001094;28;20104;-78
2022/07/31 02:45:22;;;;;;;6.72;2.78;;;17.90;99.90;;;;;;5004151;28;20045;-77
2022/07/31 02:47:48;;;;;;;3.42;2.60;;;17.90;99.90;;;;;;5003925;28;20080;-78
2022/07/31 02:50:15;;;;;;;3.33;2.95;;;17.80;99.90;;;;;;4999684;28;21100;-78
2022/07/31 02:52:42;;;;;;;4.07;2.22;;;17.80;99.90;;;;;;5004828;28;20054;-79
2022/07/31 02:55:09;;;;;;;7.28;2.33;;;17.90;99.90;;;;;;5005271;28;20041;-78
2022/07/31 02:57:35;;;;;;;5.68;2.38;;;17.80;99.90;;;;;;5004752;28;20053;-78
2022/07/31 03:00:00;;;;;;;4.55;2.83;;;17.80;99.90;;;;;;5002162;28;20034;-78
2022/07/31 03:02:26;;;;;;;3.90;2.42;;;17.70;99.90;;;;;;4997266;28;20037;-80
2022/07/31 03:04:52;;;;;;;11.82;3.05;;;17.80;99.90;;;;;;5004103;28;20043;-78
2022/07/31 03:07:17;;;;;;;4.22;3.13;;;17.80;99.90;;;;;;5005400;28;20038;-77
2022/07/31 03:09:43;;;;;;;6.25;3.00;;;17.80;99.90;;;;;;5002497;28;20054;-77
2022/07/31 03:12:09;;;;;;;4.47;2.53;;;17.70;99.90;;;;;;5000817;28;20149;-78
2022/07/31 03:14:35;;;;;;;4.65;3.35;;;18.10;99.90;;;;;;5004635;28;20046;-78
2022/07/31 03:17:02;;;;;;;4.10;2.50;;;17.70;99.90;;;;;;4999771;28;20381;-78
2022/07/31 03:19:28;;;;;;;5.82;2.72;;;17.70;99.90;;;;;;5007482;28;20084;-78
2022/07/31 03:21:55;;;;;;;3.58;2.20;;;17.70;99.90;;;;;;5001985;28;20073;-80
2022/07/31 03:24:21;;;;;;;5.93;2.60;;;17.70;99.90;;;;;;5001049;28;20050;-79
2022/07/31 03:26:46;;;;;;;7.25;3.15;;;17.70;99.90;;;;;;5004418;28;20041;-78
2022/07/31 03:29:12;;;;;;;7.38;3.05;;;17.70;99.90;;;;;;5003861;28;20038;-79
2022/07/31 03:31:38;;;;;;;4.05;2.60;;;17.70;99.90;;;;;;5000287;28;20046;-78
2022/07/31 03:34:03;;;;;;;3.83;2.38;;;17.70;99.90;;;;;;5001262;28;20049;-78
2022/07/31 03:36:30;;;;;;;7.43;3.55;;;17.80;99.90;;;;;;5001952;28;20481;-79
2022/07/31 03:38:56;;;;;;;4.40;2.78;;;17.80;99.90;;;;;;5001328;28;20046;-79
2022/07/31 03:41:22;;;;;;;6.15;3.35;;;17.70;99.90;;;;;;4998723;28;20050;-78
2022/07/31 03:43:48;;;;;;;3.50;2.53;;;17.70;99.90;;;;;;5003558;28;20053;-80
2022/07/31 03:46:16;;;;;;;3.95;2.50;;;17.80;99.90;;;;;;5001945;28;20045;-77
2022/07/31 03:48:42;;;;;;;7.40;3.25;;;17.70;99.90;;;;;;4997584;28;20060;-78
2022/07/31 03:51:09;;;;;;;3.83;2.38;;;17.80;99.90;;;;;;4997931;28;20046;-78
2022/07/31 03:53:34;;;;;;;4.18;2.65;;;17.80;99.90;;;;;;4999958;28;20041;-80
2022/07/31 03:56:03;;;;;;;5.15;2.50;;;17.80;99.90;;;;;;4998253;28;20046;-80
2022/07/31 03:58:29;;;;;;;5.28;3.70;;;17.70;99.90;;;;;;5002490;28;20045;-78
2022/07/31 04:00:55;;;;;;;4.72;3.08;;;17.70;99.90;;;;;;5001872;28;20128;-80
2022/07/31 04:03:21;;;;;;;2.95;2.67;;;17.80;99.90;;;;;;5001346;28;20124;-80
2022/07/31 04:05:46;;;;;;;6.45;3.78;;;17.70;99.90;;;;;;4996619;28;20042;-78
2022/07/31 04:08:14;;;;;;;4.90;2.95;;;17.80;99.90;;;;;;5000335;28;20040;-79
2022/07/31 04:10:40;;;;;;;5.05;3.08;;;17.80;99.90;;;;;;5001577;28;20181;-78
2022/07/31 04:13:05;;;;;;;6.47;3.55;;;17.80;99.90;;;;;;4998220;28;20511;-78
2022/07/31 04:15:32;;;;;;;4.30;3.30;;;17.80;99.90;;;;;;5001837;28;20092;-78
2022/07/31 04:17:57;;;;;;;4.13;3.08;;;17.80;99.90;;;;;;5002203;28;20053;-78
2022/07/31 04:20:23;;;;;;;4.28;2.83;;;17.90;99.90;;;;;;4999994;28;20050;-78
2022/07/31 04:22:49;;;;;;;8.10;3.05;;;17.90;99.90;;;;;;4999634;28;20038;-79
2022/07/31 04:25:15;;;;;;;3.60;2.58;;;17.90;99.90;;;;;;5001298;28;20045;-78
2022/07/31 04:27:41;;;;;;;5.30;3.22;;;18.00;99.90;;;;;;4999013;28;20068;-78
2022/07/31 04:30:07;;;;;;;9.10;3.20;;;18.00;99.90;;;;;;5000561;28;20488;-78
2022/07/31 04:32:34;;;;;;;4.75;3.03;;;18.00;99.90;;;;;;4985028;28;20754;-78
2022/07/31 04:35:00;;;;;;;6.10;3.17;;;18.10;99.90;;;;;;5002718;28;20428;-78
2022/07/31 04:37:25;;;;;;;6.05;2.53;;;18.10;99.90;;;;;;5001962;28;20046;-79
2022/07/31 04:39:51;;;;;;;8.02;3.05;;;18.10;99.90;;;;;;4998981;28;20104;-79
2022/07/31 04:42:17;;;;;;;5.70;3.13;;;18.20;99.90;;;;;;5001022;28;20137;-78
2022/07/31 04:44:43;;;;;;;4.63;2.90;;;18.20;99.90;;;;;;4998077;28;20050;-78
2022/07/31 04:47:09;;;;;;;3.55;2.90;;;18.20;99.90;;;;;;5002145;28;20046;-77
2022/07/31 04:49:35;;;;;;;4.40;2.92;;;18.20;99.90;;;;;;4999892;28;20037;-80
2022/07/31 04:52:01;;;;;;;2.80;2.55;;;18.20;99.90;;;;;;5002710;28;20054;-78
2022/07/31 04:54:26;;;;;;;5.60;3.08;;;18.10;99.90;;;;;;5000756;28;20038;-78
2022/07/31 04:56:52;;;;;;;8.07;3.13;;;18.10;99.90;;;;;;4997549;28;20053;-78
2022/07/31 04:59:20;;;;;;;5.30;3.08;;;18.10;99.90;;;;;;5000091;28;20074;-78
2022/07/31 05:01:46;;;;;;;3.33;2.60;;;18.00;99.90;;;;;;4999955;28;20046;-78
2022/07/31 05:04:12;;;;;;;8.63;3.38;;;18.10;99.90;;;;;;5000138;28;20065;-78
2022/07/31 05:06:40;;;;;;;9.32;3.38;;;18.10;99.90;;;;;;4985595;28;20460;-78
2022/07/31 05:09:07;;;;;;;5.32;3.00;;;18.10;99.90;;;;;;5000180;28;20049;-78
2022/07/31 05:11:34;;;;;;;4.07;3.00;;;18.10;99.90;;;;;;5000156;28;20404;-81
2022/07/31 05:14:02;;;;;;;5.15;2.92;;;18.10;99.90;;;;;;4998094;28;20765;-80
2022/07/31 05:16:30;;;;;;;5.85;3.30;;;18.20;99.90;;;;;;4997444;28;20065;-81
2022/07/31 05:18:56;;;;;;;9.27;3.58;;;18.20;99.90;;;;;;5000400;28;20049;-81
2022/07/31 05:21:25;;;;;;;4.28;2.90;;;18.20;99.90;;;;;;5003008;28;20534;-78
2022/07/31 05:23:51;;;;;;;5.10;3.10;;;18.30;99.90;;;;;;5000785;28;20042;-79
2022/07/31 05:26:18;;;;;;;4.40;3.53;;;18.40;99.90;;;;;;4997496;28;20042;-79
2022/07/31 05:28:45;;;;;;;5.90;3.72;;;18.30;99.90;;;;;;4994560;28;21027;-78
2022/07/31 05:31:11;;;;;;;5.28;3.70;;;18.40;99.90;;;;;;5002424;28;20042;-79
2022/07/31 05:33:37;;;;;;;5.05;3.35;;;18.40;99.90;;;;;;4997788;28;20436;-78
2022/07/31 05:36:04;;;;;;;7.00;3.03;;;18.40;99.90;;;;;;4999310;28;20067;-78
2022/07/31 05:38:29;;;;;;;3.30;2.78;;;18.50;99.90;;;;;;5001472;28;20034;-78
2022/07/31 05:40:55;;;;;;;4.95;3.13;;;18.50;99.90;;;;;;5005377;28;20104;-78
2022/07/31 05:43:20;;;;;;;4.78;3.20;;;18.50;99.90;;;;;;5004158;28;20054;-79
2022/07/31 05:45:46;;;;;;;6.75;3.20;;;18.50;99.90;;;;;;5000811;28;20067;-78
2022/07/31 05:48:16;;;;;;;4.38;3.40;;;18.50;99.90;;;;;;5006058;28;20648;-78
2022/07/31 05:50:43;;;;;;;6.40;3.50;;;18.60;99.90;;;;;;5002700;28;20041;-78
2022/07/31 05:53:13;;;;;;;6.15;3.85;;;18.60;99.90;;;;;;5006882;28;20041;-79
2022/07/31 05:55:40;;;;;;;6.63;3.50;;;18.60;99.90;;;;;;5000764;28;20056;-78
2022/07/31 05:58:06;;;;;;;12.18;3.55;;;18.60;99.90;;;;;;5005602;28;20030;-78
2022/07/31 06:00:32;;;;;;;6.18;3.53;;;18.60;99.90;;;;;;5001602;28;20043;-78
2022/07/31 06:02:58;;;;;;;5.30;3.42;;;18.70;99.90;;;;;;5005960;28;20800;-79
2022/07/31 06:05:25;;;;;;;5.72;3.75;;;18.70;99.90;;;;;;5003017;28;20466;-78
2022/07/31 06:07:51;;;;;;;7.78;3.72;;;18.70;99.90;;;;;;5003227;28;20416;-78
2022/07/31 06:10:17;;;;;;;11.15;4.10;;;18.70;99.90;;;;;;5003727;28;20050;-78
2022/07/31 06:12:42;;;;;;;10.00;3.95;;;18.70;99.90;;;;;;5000450;28;20111;-78
2022/07/31 06:15:08;;;;;;;4.03;3.60;;;18.80;99.90;;;;;;5008700;28;20500;-81
2022/07/31 06:17:36;;;;;;;5.93;3.88;;;18.70;99.90;;;;;;5005830;28;20140;-79
2022/07/31 06:20:02;;;;;;;3.53;3.05;;;18.70;99.90;;;;;;5009836;28;20049;-80
2022/07/31 06:22:27;;;;;;;6.88;3.65;;;18.80;99.90;;;;;;5009283;28;20053;-79
2022/07/31 06:24:53;;;;;;;8.00;3.85;;;18.80;99.90;;;;;;5023263;28;20104;-79
2022/07/31 06:27:18;;;;;;;3.67;3.35;;;18.80;99.90;;;;;;5002714;28;20507;-79
2022/07/31 06:29:44;;;;;;;5.30;3.40;;;18.90;99.90;;;;;;5020862;28;20042;-80
2022/07/31 06:32:10;;;;;;;6.15;3.10;;;18.90;99.90;;;;;;5007709;28;20038;-79
2022/07/31 06:34:35;;;;;;;4.93;4.22;;;18.90;99.90;;;;;;5009166;28;20050;-81
2022/07/31 06:37:01;;;;;;;7.25;3.55;;;19.00;99.90;;;;;;5016201;28;20045;-82
2022/07/31 06:39:26;;;;;;;6.10;4.05;;;19.10;99.90;;;;;;5013278;28;20077;-79
2022/07/31 06:41:52;;;;;;;3.75;3.10;;;19.20;99.90;;;;;;5013351;28;20125;-80
2022/07/31 06:44:18;;;;;;;5.22;3.17;;;19.20;99.90;;;;;;5009793;28;20053;-80
2022/07/31 06:46:48;;;;;;;7.85;3.22;;;19.30;99.90;;;;;;5005110;28;20049;-80
2022/07/31 06:49:14;;;;;;;4.53;3.58;;;19.30;99.90;;;;;;5012794;28;20042;-78
2022/07/31 06:51:40;;;;;;;7.00;4.20;;;19.40;99.90;;;;;;5002693;28;20540;-80
2022/07/31 06:54:08;;;;;;;5.68;3.95;;;19.40;99.90;;;;;;4983993;28;20081;-81
2022/07/31 06:56:35;;;;;;;5.50;3.80;;;19.50;99.90;;;;;;5010582;28;20081;-81
2022/07/31 06:59:02;;;;;;;9.45;3.40;;;19.50;99.90;;;;;;5004402;28;20065;-80
2022/07/31 07:01:30;;;;;;;8.90;4.28;;;19.60;99.90;;;;;;5021386;28;20053;-83
2022/07/31 07:03:56;;;;;;;4.25;3.80;;;19.60;99.90;;;;;;4998960;28;20057;-79
2022/07/31 07:06:22;;;;;;;4.50;4.10;;;19.60;99.90;;;;;;4998702;28;20041;-82
2022/07/31 07:08:48;;;;;;;10.63;4.20;;;19.70;99.90;;;;;;5002490;28;20168;-81
2022/07/31 07:11:13;;;;;;;8.15;3.90;;;19.70;99.90;;;;;;4980629;28;20050;-83
2022/07/31 07:13:40;;;;;;;5.85;3.63;;;19.70;99.90;;;;;;4999930;28;20228;-81
2022/07/31 07:16:06;;;;;;;5.90;3.45;;;19.80;99.90;;;;;;5001850;28;20038;-78
2022/07/31 07:18:32;;;;;;;7.95;4.10;;;19.80;99.90;;;;;;5004091;28;20141;-77
2022/07/31 07:20:58;;;;;;;5.65;4.18;;;19.80;99.90;;;;;;5001089;28;20125;-81
2022/07/31 07:23:23;;;;;;;5.57;4.40;;;19.90;99.90;;;;;;5004544;28;20116;-80
2022/07/31 07:25:49;;;;;;;6.57;4.47;;;19.90;99.90;;;;;;5000537;28;20405;-77
2022/07/31 07:28:15;;;;;;;8.05;4.30;;;19.90;99.90;;;;;;5004061;28;20057;-78
2022/07/31 07:30:41;;;;;;;9.32;3.97;;;20.00;99.90;;;;;;5003452;28;20666;-81
2022/07/31 07:33:06;;;;;;;11.27;4.35;;;20.00;99.90;;;;;;5006799;28;20091;-79
2022/07/31 07:35:32;;;;;;;5.35;4.82;;;20.10;99.90;;;;;;5004415;28;20053;-80
2022/07/31 07:37:58;;;;;;;5.53;5.03;;;20.10;99.90;;;;;;5008700;28;20042;-80
2022/07/31 07:40:25;;;;;;;8.63;5.25;;;20.10;99.90;;;;;;5006668;28;20050;-81
2022/07/31 07:42:50;;;;;;;6.13;4.93;;;20.30;99.90;;;;;;5007277;28;20057;-83
2022/07/31 07:45:16;;;;;;;6.47;4.78;;;20.30;99.90;;;;;;5004771;28;20362;-81
2022/07/31 07:47:41;;;;;;;7.13;5.10;;;20.30;99.90;;;;;;5006318;28;20062;-79
2022/07/31 07:50:08;;;;;;;6.88;4.72;;;20.40;99.90;;;;;;5005022;28;20145;-77
2022/07/31 07:52:35;;;;;;;8.32;5.53;;;20.50;99.90;;;;;;4986035;28;20072;-78
2022/07/31 07:55:01;;;;;;;6.25;5.38;;;20.60;99.90;;;;;;5003904;28;20072;-83
2022/07/31 07:57:27;;;;;;;17.95;5.45;;;20.60;99.90;;;;;;5000481;28;20050;-81
2022/07/31 07:59:52;;;;;;;7.63;5.35;;;20.80;99.90;;;;;;5003684;28;20042;-81
2022/07/31 08:02:18;;;;;;;8.18;5.13;;;20.80;99.90;;;;;;5003552;28;20050;-82
2022/07/31 08:04:44;;;;;;;8.73;5.15;;;20.80;99.90;;;;;;4994437;28;20053;-83
2022/07/31 08:07:09;;;;;;;7.82;4.85;;;20.90;99.90;;;;;;4999772;28;20042;-81
2022/07/31 08:09:36;;;;;;;8.40;5.68;;;20.90;99.90;;;;;;5005607;28;20034;-82
2022/07/31 08:12:03;;;;;;;6.22;5.63;;;21.00;99.90;;;;;;5005906;28;20050;-82
2022/07/31 08:14:29;;;;;;;9.60;5.95;;;21.00;99.90;;;;;;5008073;28;20046;-82
2022/07/31 08:16:56;;;;;;;8.55;5.90;;;21.10;99.90;;;;;;5004364;28;20388;-79
2022/07/31 08:19:21;;;;;;;6.35;5.22;;;21.10;99.90;;;;;;4988331;28;20049;-82
2022/07/31 08:21:47;;;;;;;8.20;5.63;;;21.20;99.90;;;;;;5007435;28;20041;-82
2022/07/31 08:24:15;;;;;;;8.18;4.88;;;21.20;99.90;;;;;;5007287;28;20384;-82
2022/07/31 08:29:27;;;;;;;6.45;4.80;;;21.40;99.90;;;;;;5003546;28;20053;-82
2022/07/31 08:31:52;;;;;;;11.57;5.40;;;21.40;99.90;;;;;;5006619;28;20614;-83
2022/07/31 08:34:18;;;;;;;7.40;5.40;;;21.50;99.90;;;;;;5003843;28;20229;-80
2022/07/31 08:36:44;;;;;;;9.20;5.78;;;21.60;99.90;;;;;;5008532;28;20037;-81
2022/07/31 08:39:10;;;;;;;9.20;5.63;;;21.70;99.90;;;;;;5015645;28;20034;-82
2022/07/31 08:41:39;;;;;;;14.00;6.28;;;21.70;99.90;;;;;;5005646;28;20492;-81
2022/07/31 08:44:05;;;;;;;9.98;5.38;;;21.70;99.90;;;;;;5004823;28;20207;-82
2022/07/31 08:46:35;;;;;;;7.90;5.95;;;21.80;99.90;;;;;;5004255;28;20116;-83
2022/07/31 08:49:02;;;;;;;12.18;6.10;;;21.70;99.90;;;;;;5000631;28;20571;-83
2022/07/31 08:51:30;;;;;;;8.45;5.75;;;21.60;99.90;;;;;;4985962;28;20037;-82
2022/07/31 08:53:57;;;;;;;12.15;6.60;;;21.60;99.90;;;;;;5004365;28;20959;-82
2022/07/31 08:56:24;;;;;;;9.93;6.72;;;21.60;99.90;;;;;;5002400;28;20049;-83
2022/07/31 08:58:50;;;;;;;10.13;7.18;;;21.50;99.90;;;;;;5004612;28;20746;-80
2022/07/31 09:01:16;;;;;;;9.80;7.22;;;21.40;99.90;;;;;;5003993;28;20481;-81
2022/07/31 09:03:42;;;;;;;11.02;7.40;;;21.30;99.90;;;;;;5000595;28;20061;-82
2022/07/31 09:06:08;;;;;;;8.52;7.32;;;21.30;99.90;;;;;;5004072;28;20052;-83
2022/07/31 09:08:35;;;;;;;10.05;6.97;;;21.30;99.90;;;;;;5005383;28;20052;-81
2022/07/31 09:11:12;;;;;;;12.38;7.53;;;21.20;99.90;;;;;;5006081;28;20073;-82
2022/07/31 09:13:38;;;;;;;9.82;7.18;;;21.10;99.90;;;;;;5004353;28;20378;-82
2022/07/31 09:16:04;;;;;;;10.40;6.93;;;21.20;99.90;;;;;;5008438;28;20065;-82
2022/07/31 09:18:30;;;;;;;10.23;6.25;;;21.10;99.90;;;;;;5007071;28;20385;-81
2022/07/31 09:21:04;;;;;;;9.93;6.97;;;21.00;99.90;;;;;;5006905;28;20096;-82
2022/07/31 09:23:33;;;;;;;9.20;6.83;;;21.00;99.90;;;;;;5005201;28;20050;-82
2022/07/31 09:26:04;;;;;;;12.27;7.80;;;20.90;99.90;;;;;;5004151;28;20050;-81
2022/07/31 09:28:49;;;;;;;8.55;7.25;;;20.90;99.90;;;;;;5006815;28;20117;-82
2022/07/31 09:31:15;;;;;;;10.10;7.82;;;20.80;99.90;;;;;;5003589;28;20052;-82
2022/07/31 09:33:45;;;;;;;12.30;8.05;;;20.80;99.90;;;;;;5005533;28;20149;-82
2022/07/31 09:36:11;;;;;;;10.65;7.07;;;20.70;99.90;;;;;;5010484;28;20053;-82
2022/07/31 09:38:39;;;;;;;9.98;7.60;;;20.70;99.90;;;;;;5006277;28;20050;-82
2022/07/31 09:41:17;;;;;;;9.85;8.85;;;20.80;99.90;;;;;;5004663;28;20038;-82
2022/07/31 09:43:53;;;;;;;10.30;7.82;;;20.80;99.90;;;;;;5005046;28;20056;-81
2022/07/31 09:46:19;;;;;;;10.07;7.90;;;20.90;99.90;;;;;;5016625;28;20057;-83
2022/07/31 09:48:53;;;;;;;8.02;7.03;;;20.90;99.90;;;;;;5001856;28;20034;-81
2022/07/31 09:51:19;;;;;;;11.73;7.93;;;20.90;99.90;;;;;;4983539;28;21047;-83
2022/07/31 09:53:55;;;;;;;8.40;7.25;;;20.90;99.90;;;;;;4996246;28;20033;-81
2022/07/31 09:56:34;;;;;;;9.77;7.78;;;20.90;99.90;;;;;;4996686;28;20493;-82
2022/07/31 09:59:00;;;;;;;14.13;8.93;;;20.90;99.90;;;;;;4995858;28;20175;-82
2022/07/31 10:01:27;;;;;;;9.90;8.50;;;20.90;99.90;;;;;;4999600;28;20054;-80
2022/07/31 10:03:58;;;;;;;8.57;7.78;;;20.80;99.90;;;;;;5008515;28;20042;-81
2022/07/31 10:06:26;;;;;;;9.50;8.50;;;20.80;99.90;;;;;;5003670;28;20049;-81
2022/07/31 10:08:52;;;;;;;11.57;8.90;;;20.70;99.90;;;;;;5001737;28;20412;-80
2022/07/31 10:11:23;;;;;;;13.55;8.52;;;20.70;99.90;;;;;;5004643;28;20065;-80
2022/07/31 10:13:53;;;;;;;10.05;9.05;;;20.90;99.90;;;;;;5001966;28;20125;-79
2022/07/31 10:16:21;;;;;;;12.18;9.35;;;20.70;99.90;;;;;;5005431;28;20057;-80
2022/07/31 10:18:56;;;;;;;9.00;8.05;;;20.70;99.90;;;;;;5010691;28;20054;-80
2022/07/31 10:21:24;;;;;;;10.68;9.68;;;20.70;99.90;;;;;;5008390;28;20122;-79
2022/07/31 10:24:18;;;;;;;11.38;9.50;;;20.70;99.90;;;;;;5010937;28;20050;-81
2022/07/31 10:26:44;;;;;;;9.80;8.75;;;20.70;99.90;;;;;;5024786;28;20058;-82
2022/07/31 10:29:10;;;;;;;11.40;9.93;;;20.70;99.90;;;;;;5008630;28;20038;-80
2022/07/31 10:31:36;;;;;;;11.18;9.20;;;20.70;99.90;;;;;;5006696;28;20480;-82
2022/07/31 10:34:02;;;;;;;12.70;10.07;;;20.70;99.90;;;;;;5007736;28;20416;-79
2022/07/31 10:36:32;;;;;;;12.52;9.95;;;20.70;99.90;;;;;;5008101;28;20065;-80
2022/07/31 10:39:14;;;;;;;11.18;8.38;;;20.70;99.90;;;;;;5005889;28;20050;-80
2022/07/31 10:42:06;;;;;;;12.85;8.27;;;20.70;99.90;;;;;;5007280;28;20048;-82
2022/07/31 10:44:42;;;;;;;12.90;8.10;;;20.70;99.90;;;;;;5004040;28;20054;-82
2022/07/31 10:47:13;;;;;;;11.65;8.38;;;20.70;99.90;;;;;;5014656;28;20050;-83
2022/07/31 10:49:47;;;;;;;9.52;8.27;;;20.70;99.90;;;;;;5004080;28;20045;-80
2022/07/31 10:52:25;;;;;;;10.23;8.73;;;20.70;99.90;;;;;;5004900;28;20045;-79
2022/07/31 10:54:50;;;;;;;8.90;8.10;;;20.70;99.90;;;;;;5003221;28;20575;-79
2022/07/31 10:57:21;;;;;;;8.82;7.68;;;20.70;99.90;;;;;;5005782;28;20048;-82
2022/07/31 10:59:46;;;;;;;8.93;8.02;;;20.80;99.90;;;;;;5010258;28;20049;-80
2022/07/31 11:02:12;;;;;;;10.30;7.97;;;20.70;99.90;;;;;;5001885;28;20045;-83
2022/07/31 11:04:37;;;;;;;9.95;8.95;;;20.70;99.90;;;;;;5004015;28;20038;-82
2022/07/31 11:07:13;;;;;;;12.50;9.00;;;20.60;99.90;;;;;;4987705;28;20045;-81
2022/07/31 11:09:40;;;;;;;9.85;8.90;;;20.80;99.90;;;;;;5004118;28;20045;-82
2022/07/31 11:12:17;;;;;;;9.32;8.60;;;20.50;99.90;;;;;;5021816;28;20138;-82
2022/07/31 11:14:42;;;;;;;11.55;9.10;;;20.50;99.90;;;;;;5006194;28;20045;-81
2022/07/31 11:17:08;;;;;;;10.10;8.30;;;20.40;99.90;;;;;;4993004;28;20046;-82
2022/07/31 11:19:38;;;;;;;11.05;8.98;;;20.40;99.90;;;;;;5006920;28;21563;-82
2022/07/31 11:22:11;;;;;;;9.40;8.60;;;20.30;99.90;;;;;;5003129;28;20045;-81
2022/07/31 11:24:37;;;;;;;10.43;8.52;;;20.20;99.90;;;;;;5002684;28;20069;-82
2022/07/31 11:27:05;;;;;;;11.43;8.60;;;20.20;99.90;;;;;;5007555;28;20073;-82
2022/07/31 11:29:38;;;;;;;10.65;9.48;;;20.10;99.90;;;;;;5009631;28;20033;-81
2022/07/31 11:32:03;;;;;;;10.82;9.50;;;20.10;99.90;;;;;;5009659;28;20054;-83
2022/07/31 11:34:55;;;;;;;10.57;9.57;;;20.00;99.90;;;;;;5006069;28;20046;-82
2022/07/31 11:37:29;;;;;;;15.00;9.27;;;20.00;99.90;;;;;;4991345;28;20061;-83
2022/07/31 11:45:24;;;;;;;14.43;11.45;;;19.90;99.90;;;;;;4991335;28;20080;-85
2022/07/31 11:53:40;;;;;;;;;;;;;;;;;;;;;
2022/07/31 11:56:55;;;;;;;13.25;11.95;;;19.70;99.90;;;;;;5010850;28;20056;-85
2022/07/31 11:59:42;;;;;;;13.60;12.20;;;19.60;99.90;;;;;;5020118;28;20060;-85
2022/07/31 12:02:21;;;;;;;13.75;12.45;;;19.60;99.90;;;;;;4990961;28;20415;-85
2022/07/31 12:04:48;;;;;;;14.60;13.20;;;19.60;99.90;;;;;;5002525;28;20061;-86
2022/07/31 12:07:14;;;;;;;16.23;14.57;;;19.60;99.90;;;;;;5006100;28;20399;-85
2022/07/31 12:09:45;;;;;;;16.98;14.75;;;19.70;99.90;;;;;;4986761;28;20056;-85
2022/07/31 12:12:34;;;;;;;17.00;15.25;;;19.60;99.90;;;;;;4991540;28;20060;-86
2022/07/31 12:15:31;;;;;;;19.95;17.02;;;19.60;99.90;;;;;;4982061;28;20132;-85
2022/07/31 12:18:35;;;;;;;17.88;16.08;;;19.60;99.90;;;;;;4985363;28;20663;-85
2022/07/31 12:21:11;;;;;;;18.92;16.95;;;19.50;99.90;;;;;;4985319;28;20049;-86
2022/07/31 12:27:33;;;;;;;18.17;16.48;;;19.90;99.90;;;;;;4978344;28;20053;-85
2022/07/31 12:30:10;;;;;;;19.80;17.85;;;19.60;99.90;;;;;;4984194;28;20088;-83
2022/07/31 12:32:36;;;;;;;20.05;17.95;;;19.60;99.90;;;;;;5003036;28;20041;-83
2022/07/31 12:35:03;;;;;;;22.35;20.02;;;19.60;99.90;;;;;;5001716;28;20500;-83
2022/07/31 12:37:29;;;;;;;21.42;19.33;;;19.70;99.90;;;;;;5002661;28;20049;-81
2022/07/31 12:39:56;;;;;;;23.73;21.20;;;19.80;99.90;;;;;;5025584;28;20109;-79
2022/07/31 12:42:22;;;;;;;22.13;20.00;;;19.70;99.90;;;;;;5010874;28;20037;-80
2022/07/31 12:44:49;;;;;;;23.25;20.85;;;19.70;99.90;;;;;;5025823;28;20563;-80
2022/07/31 12:47:36;;;;;;;22.38;20.10;;;19.70;99.90;;;;;;5011428;28;20085;-83
2022/07/31 12:50:02;;;;;;;22.75;20.35;;;19.70;99.90;;;;;;5072656;23;20097;-79
2022/07/31 12:52:30;;;;;;;22.55;20.45;;;19.60;99.90;;;;;;5012159;28;20057;-80
2022/07/31 12:54:56;;;;;;;23.67;21.45;;;19.60;99.90;;;;;;5010264;28;20054;-81
2022/07/31 12:57:57;;;;;;;;;;;;;;;;;;;;;
2022/07/31 13:00:26;;;;;;;25.63;23.00;;;19.60;99.90;;;;;;4987722;28;20046;-81
2022/07/31 13:02:53;;;;;;;24.25;21.70;;;19.60;99.90;;;;;;4972622;28;20062;-81
2022/07/31 13:05:20;;;;;;;23.40;21.00;;;19.60;99.90;;;;;;4988498;28;20089;-81
2022/07/31 13:07:53;;;;;;;22.90;20.80;;;19.60;99.90;;;;;;4994383;28;20046;-82
2022/07/31 13:10:27;;;;;;;22.98;20.75;;;19.60;99.90;;;;;;4988023;28;20045;-80